East Jordan, MI (49727)

4:01 PM EST on December 21, 2014 (GMT -0500)
2.1 MI NNW of East Jordan(South Field) | Change Station
CLOSE
Current Station
Personal Weather Station
Location: East Jordan, MI
Elevation: 647 ft
Nearby Weather Stations

Elev 647 ft 45.19 °N, 85.15 °W | Updated 1 second ago

Overcast
Overcast
32.8 °F
Feels Like 28 °F
N
5.0
Wind Variable Wind from SE
Gusts 7.0 mph

Today
High -- | Low -- °F
--% Chance of Precip.
Yesterday
High -- | Low -- °F
Precip. -- in
8:16 AM 5:01 PM
Waning Crescent, 0% visible
Pressure 30.14 in
Visibility 5.0 miles
Clouds Scattered Clouds 1200 ft
Overcast 4400 ft
Windchill 28 °F
Dew Point 30 °F
Humidity 88%
Rainfall 0.01 in
Snow Depth Not available.
UV 0 out of 12
Pollen .10 out of 12
Air Quality Not available.
Flu Activity Not available.
METAR KCVX 212034Z AUTO 15006KT 5SM BR SCT012 OVC044 00/M01 A3014 RMK AO2 T00021010

More Conditions Fewer Conditions

Pressure 30.14 in
Visibility 5.0 miles
Clouds Scattered Clouds 1200 ft
Overcast 4400 ft
Windchill 28 °F
Dew Point 30 °F
Humidity 88%
Rainfall 0.01 in
Snow Depth Not available.
UV 0 out of 12
Pollen .10 out of 12
Air Quality Not available.
Flu Activity Not available.
METAR KCVX 212034Z AUTO 15006KT 5SM BR SCT012 OVC044 00/M01 A3014 RMK AO2 T00021010

More Conditions Fewer Conditions

Nowcast | as of 4:00 PM EST on December 21, 2014

At 5 PM...cloudy. Temperature 35. South winds 9 mph. At 7 PM...cloudy. Temperature 34. South winds 10 mph. At 9 PM...cloudy. Temperature 33. South winds 12 mph. At 11 PM...cloudy. Temperature 33. South winds 13 mph.

×

10-Day Weather Forecast

Almanac

Astronomy

Dec. 21, 2014 Rise Set
Actual Time
Civil Twilight
Nautical Twilight
Astronomical Twilight
Moon
Length of Visible Light
Length of Day
Tomorrow will be .
, % of the Moon is Illuminated

Today's Extremes

State Highs State Lows

Community

WunderPhotos

Upload Photos

1,779,478 photos uploaded!

WunderBlogs® & News

Nearby

Air Quality

  Air Quality AQ Index Pollutant
Not available.

Snow Depth

Station Depth Elevation

Earthquake Activity

City Distance Mag. Time & Date
Minimum magnitude displayed is 2.5.

Coastal Water Temperatures

Place Temperature

Nearby Weather Stations